Grandview Heights, Ohio
Current Conditions -  °F | °C
As of 10:53 AM on Monday 26 Jan 2015 (Local Time) from KOSU Reporting Station
Overcast Overcast  
Wind Chill:   Ceiling: 1100
Heat Index: 19°   Visibility: 10mi
Dew Point: 14°   Wind: 12mph
Humidity: 81%   Direction: 320°NW
Pressure: 29.85"   Gusts: NA
Location:  39.987°N, 83.0425°W
Report Text: KOSU 261553Z 32010KT 10SM OVC011 M07/M10 A2985 RMK AO2 SLP121 T10721100
Loading
Personal Weather Stations






























Interactive Weather Map New forecast layout! Learn more

10-Day Weather Forecast

Advertisements
Track Severe Weather on mobile